Hauula, Hawaii
Current Conditions -  °F | °C
As of 6:58 AM on Sunday 21 Dec 2014 (Local Time) from PHHI Reporting Station
Clear Clear  
Wind Chill: 68°   Ceiling: Unl
Heat Index: 68°   Visibility: 10mi
Dew Point: 64°   Wind: 1mph
Humidity: 86%   Direction: 20°NNE
Pressure: 30.05"   Gusts: NA
Location:  21.6°N, 157.9°W
Report Text: PHHI 211658Z AUTO 02001KT 10SM CLR 20/18 A3005 RMK AO2 SLP169 T02010177 $
Loading
Personal Weather Stations






























Interactive Weather Map New forecast layout! Learn more

10-Day Weather Forecast

Advertisements
Track Severe Weather on mobile